Time;durP1;ratioP1;P1;durP2;ratioP2;P2;SDS_P1;SDS_P2;PMS_P1;PMS_P2;Temp;Humidity;BMP_temperature;BMP_pressure;BME280_temperature;BME280_humidity;BME280_pressure;Samples;Min_cycle;Max_cycle;Signal;HPM_P1;HPM_P2
2023/05/28 00:01:26;;;;;;;14.70;7.43;;;13.40;67.30;;;;;;5003908;28;20072;-78
2023/05/28 00:03:51;;;;;;;14.43;7.15;;;13.40;68.10;;;;;;5022206;28;20144;-77
2023/05/28 00:06:17;;;;;;;9.27;6.50;;;13.40;67.00;;;;;;5021782;28;20052;-78
2023/05/28 00:08:42;;;;;;;11.05;7.35;;;13.50;66.20;;;;;;5006075;28;20091;-77
2023/05/28 00:11:08;;;;;;;17.25;6.72;;;13.50;66.70;;;;;;5024277;28;20072;-77
2023/05/28 00:13:34;;;;;;;17.88;7.50;;;13.20;66.80;;;;;;5009074;28;20072;-77
2023/05/28 00:16:00;;;;;;;11.45;6.88;;;13.00;67.10;;;;;;5024663;28;20124;-78
2023/05/28 00:18:28;;;;;;;10.05;7.10;;;12.90;68.10;;;;;;5025547;28;20026;-78
2023/05/28 00:20:54;;;;;;;10.57;6.05;;;12.80;68.60;;;;;;5023906;28;20069;-78
2023/05/28 00:23:19;;;;;;;12.55;7.13;;;12.90;68.70;;;;;;5008420;28;20037;-79
2023/05/28 00:25:45;;;;;;;14.95;6.90;;;12.90;68.50;;;;;;5009840;28;20041;-78
2023/05/28 00:28:11;;;;;;;11.82;6.88;;;13.00;67.80;;;;;;5025018;28;20116;-77
2023/05/28 00:30:36;;;;;;;9.55;6.53;;;12.90;67.60;;;;;;5009006;28;20095;-78
2023/05/28 00:33:02;;;;;;;7.63;4.90;;;12.80;68.30;;;;;;5019735;28;20045;-78
2023/05/28 00:35:28;;;;;;;9.45;5.03;;;12.80;68.30;;;;;;5008502;28;20439;-78
2023/05/28 00:37:53;;;;;;;9.30;6.53;;;12.70;67.70;;;;;;4992003;28;20036;-78
2023/05/28 00:40:19;;;;;;;9.20;4.60;;;12.70;67.90;;;;;;5020952;28;20037;-77
2023/05/28 00:42:45;;;;;;;10.98;5.30;;;12.70;68.30;;;;;;5006206;28;20120;-77
2023/05/28 00:45:11;;;;;;;10.50;6.07;;;12.60;68.40;;;;;;5005172;28;20033;-77
2023/05/28 00:47:40;;;;;;;5.95;4.25;;;12.60;68.20;;;;;;5024669;28;20036;-77
2023/05/28 00:50:09;;;;;;;12.07;6.30;;;12.50;68.50;;;;;;5003728;28;20033;-77
2023/05/28 00:52:35;;;;;;;11.00;7.47;;;12.40;68.70;;;;;;5007531;28;20153;-77
2023/05/28 00:55:00;;;;;;;15.77;8.63;;;12.30;69.00;;;;;;5017096;28;20581;-77
2023/05/28 00:57:26;;;;;;;12.98;8.05;;;12.00;69.60;;;;;;5007087;28;20068;-77
2023/05/28 00:59:52;;;;;;;19.65;8.25;;;12.00;70.00;;;;;;5008002;28;20052;-78
2023/05/28 01:02:17;;;;;;;11.98;7.20;;;11.90;70.00;;;;;;5021431;28;20033;-78
2023/05/28 01:04:43;;;;;;;16.70;8.63;;;11.90;71.20;;;;;;5003858;28;20049;-77
2023/05/28 01:07:08;;;;;;;17.88;8.90;;;11.90;71.70;;;;;;5025399;28;20030;-77
2023/05/28 01:09:34;;;;;;;15.20;8.30;;;11.90;70.20;;;;;;5009341;28;20080;-77
2023/05/28 01:11:59;;;;;;;18.88;8.02;;;11.90;71.20;;;;;;5009445;28;20079;-76
2023/05/28 01:14:25;;;;;;;17.13;9.10;;;11.90;70.10;;;;;;5023456;28;20112;-77
2023/05/28 01:16:51;;;;;;;16.33;7.80;;;11.90;69.90;;;;;;5024181;28;20037;-76
2023/05/28 01:19:18;;;;;;;16.27;7.85;;;11.70;70.40;;;;;;5026615;28;20037;-76
2023/05/28 01:21:44;;;;;;;13.45;7.53;;;11.50;71.70;;;;;;5021847;28;20512;-77
2023/05/28 01:24:10;;;;;;;12.88;8.10;;;11.30;72.00;;;;;;4991988;28;20438;-76
2023/05/28 01:26:36;;;;;;;13.10;8.55;;;11.30;72.80;;;;;;5010182;28;20037;-76
2023/05/28 01:29:08;;;;;;;14.27;8.27;;;11.30;71.90;;;;;;5010176;28;20037;-77
2023/05/28 01:31:34;;;;;;;14.52;7.43;;;11.30;71.30;;;;;;5006936;28;20626;-76
2023/05/28 01:34:00;;;;;;;13.68;7.53;;;11.10;71.70;;;;;;5025579;28;20037;-77
2023/05/28 01:36:28;;;;;;;11.02;7.32;;;11.20;71.30;;;;;;5025282;28;20029;-76
2023/05/28 01:38:58;;;;;;;14.80;8.57;;;11.20;71.10;;;;;;5008188;28;20143;-76
2023/05/28 01:41:25;;;;;;;11.00;8.20;;;11.20;72.40;;;;;;5008305;28;20481;-77
2023/05/28 01:43:52;;;;;;;13.25;7.65;;;11.00;71.30;;;;;;4992806;28;20060;-77
2023/05/28 01:46:18;;;;;;;12.38;7.72;;;10.90;71.40;;;;;;5020513;28;20525;-77
2023/05/28 01:48:43;;;;;;;14.05;8.63;;;10.90;72.40;;;;;;5005462;28;20060;-77
2023/05/28 01:51:10;;;;;;;16.15;8.50;;;10.70;72.70;;;;;;5025173;28;20040;-77
2023/05/28 01:53:35;;;;;;;12.20;8.25;;;10.70;73.60;;;;;;5009151;28;20057;-77
2023/05/28 01:56:01;;;;;;;11.00;7.70;;;10.70;73.20;;;;;;5006238;28;20505;-76
2023/05/28 01:58:27;;;;;;;11.93;7.65;;;10.80;73.80;;;;;;5007792;28;20499;-77
2023/05/28 02:01:07;;;;;;;11.38;7.93;;;10.80;73.40;;;;;;5021236;28;20095;-76
2023/05/28 02:03:32;;;;;;;16.10;8.45;;;10.90;72.50;;;;;;5009366;28;20041;-76
2023/05/28 02:05:58;;;;;;;14.13;8.23;;;10.80;72.50;;;;;;5006515;28;20045;-78
2023/05/28 02:08:23;;;;;;;10.48;7.68;;;10.70;73.60;;;;;;5008395;28;20079;-78
2023/05/28 02:10:49;;;;;;;16.70;8.00;;;10.40;77.30;;;;;;5023218;28;20034;-78
2023/05/28 02:13:16;;;;;;;17.60;8.20;;;10.30;77.00;;;;;;5023672;28;20393;-78
2023/05/28 02:15:41;;;;;;;17.00;7.95;;;10.40;76.40;;;;;;5007810;28;20033;-78
2023/05/28 02:18:10;;;;;;;15.70;8.10;;;10.40;76.40;;;;;;5007948;28;20041;-78
2023/05/28 02:20:36;;;;;;;12.57;8.65;;;10.40;76.00;;;;;;5005470;28;20227;-78
2023/05/28 02:23:02;;;;;;;10.95;7.82;;;10.40;74.40;;;;;;5020688;28;20111;-78
2023/05/28 02:25:28;;;;;;;13.55;8.13;;;10.20;75.80;;;;;;5008151;28;20745;-78
2023/05/28 02:27:54;;;;;;;13.43;8.48;;;10.10;78.60;;;;;;4990641;28;20029;-78
2023/05/28 02:30:20;;;;;;;11.57;7.63;;;10.30;76.80;;;;;;5020328;28;20108;-78
2023/05/28 02:32:45;;;;;;;14.63;8.45;;;10.30;76.10;;;;;;5023125;28;20202;-78
2023/05/28 02:35:12;;;;;;;12.98;7.82;;;10.20;76.10;;;;;;5023550;28;20033;-78
2023/05/28 02:37:38;;;;;;;16.55;7.78;;;10.20;77.10;;;;;;5006598;28;20398;-78
2023/05/28 02:40:05;;;;;;;15.07;8.32;;;10.00;80.50;;;;;;5022115;28;20026;-78
2023/05/28 02:42:30;;;;;;;17.35;8.23;;;10.00;77.20;;;;;;5023007;28;20022;-78
2023/05/28 02:44:56;;;;;;;18.60;9.23;;;10.10;78.20;;;;;;5002515;28;20037;-81
2023/05/28 02:47:21;;;;;;;13.32;8.35;;;10.00;76.80;;;;;;5022896;28;20404;-81
2023/05/28 02:49:47;;;;;;;13.73;8.07;;;10.10;76.20;;;;;;5007343;28;20040;-80
2023/05/28 02:52:12;;;;;;;13.63;7.80;;;9.90;76.90;;;;;;5001576;28;20034;-81
2023/05/28 02:54:38;;;;;;;13.45;8.50;;;9.90;80.40;;;;;;5006356;28;20079;-81
2023/05/28 02:57:03;;;;;;;15.38;8.45;;;9.90;79.30;;;;;;4996379;28;20033;-81
2023/05/28 02:59:29;;;;;;;13.82;8.02;;;9.80;78.70;;;;;;5021817;28;20393;-80
2023/05/28 03:01:55;;;;;;;14.18;8.60;;;9.90;78.70;;;;;;5001499;28;20034;-81
2023/05/28 03:04:20;;;;;;;16.73;7.93;;;9.90;78.20;;;;;;5014564;28;20029;-81
2023/05/28 03:06:46;;;;;;;14.07;8.15;;;10.00;76.80;;;;;;5006013;28;20060;-81
2023/05/28 03:09:12;;;;;;;14.50;7.93;;;9.90;85.10;;;;;;5022936;28;20294;-80
2023/05/28 03:11:37;;;;;;;11.90;8.32;;;9.70;88.70;;;;;;5022515;28;20045;-81
2023/05/28 03:14:03;;;;;;;11.50;8.02;;;9.70;89.50;;;;;;5006027;28;20040;-81
2023/05/28 03:16:32;;;;;;;14.75;9.02;;;9.60;90.50;;;;;;5005609;28;20038;-81
2023/05/28 03:18:57;;;;;;;14.73;8.48;;;9.60;93.20;;;;;;5004516;28;20389;-81
2023/05/28 03:21:23;;;;;;;15.20;9.10;;;9.50;96.70;;;;;;5005391;28;20108;-81
2023/05/28 03:23:48;;;;;;;14.02;8.20;;;9.60;96.50;;;;;;4990738;28;20057;-81
2023/05/28 03:26:14;;;;;;;13.85;8.13;;;9.70;92.10;;;;;;5022174;28;20068;-80
2023/05/28 03:28:39;;;;;;;13.93;8.30;;;9.80;88.60;;;;;;5022145;28;20061;-81
2023/05/28 03:31:05;;;;;;;15.43;8.88;;;9.70;91.00;;;;;;5004863;28;20033;-80
2023/05/28 03:33:30;;;;;;;14.10;8.30;;;9.50;94.20;;;;;;5004486;28;20042;-81
2023/05/28 03:35:56;;;;;;;16.95;9.07;;;9.50;96.50;;;;;;5005918;28;20080;-81
2023/05/28 03:38:22;;;;;;;17.60;8.75;;;9.40;95.00;;;;;;5018615;28;20091;-81
2023/05/28 03:40:47;;;;;;;16.58;8.25;;;9.50;94.10;;;;;;5026155;28;20041;-81
2023/05/28 03:43:13;;;;;;;15.88;8.05;;;9.50;97.30;;;;;;5025477;28;20056;-81
2023/05/28 03:45:38;;;;;;;17.13;9.43;;;9.40;97.00;;;;;;5027371;28;20056;-81
2023/05/28 03:48:04;;;;;;;17.40;8.77;;;9.30;99.60;;;;;;5004347;28;20041;-81
2023/05/28 03:50:30;;;;;;;16.55;9.20;;;9.40;99.50;;;;;;5004848;28;20382;-81
2023/05/28 03:52:56;;;;;;;16.38;8.68;;;9.40;97.30;;;;;;5000583;28;20025;-81
2023/05/28 03:55:21;;;;;;;15.30;8.38;;;9.50;99.70;;;;;;5009857;28;20026;-81
2023/05/28 03:57:47;;;;;;;16.50;8.75;;;9.60;95.20;;;;;;5009379;28;21591;-81
2023/05/28 04:00:13;;;;;;;13.45;8.85;;;9.60;95.30;;;;;;5025352;28;20033;-81
2023/05/28 04:02:39;;;;;;;14.65;8.60;;;9.50;97.70;;;;;;5009126;28;20516;-81
2023/05/28 04:05:05;;;;;;;16.88;9.52;;;9.50;98.70;;;;;;5008840;28;20061;-81
2023/05/28 04:07:30;;;;;;;19.45;9.43;;;9.60;96.20;;;;;;5025583;28;20117;-81
2023/05/28 04:09:56;;;;;;;15.45;8.77;;;9.70;95.10;;;;;;5026264;28;20104;-81
2023/05/28 04:12:22;;;;;;;18.13;9.13;;;9.70;96.40;;;;;;4993366;28;20586;-81
2023/05/28 04:14:47;;;;;;;15.70;9.60;;;9.80;94.60;;;;;;5006948;28;20032;-81
2023/05/28 04:17:13;;;;;;;17.45;10.18;;;9.80;94.20;;;;;;5025072;28;20045;-81
2023/05/28 04:19:40;;;;;;;20.65;9.65;;;10.00;93.60;;;;;;5025212;28;20065;-81
2023/05/28 04:22:06;;;;;;;18.17;9.13;;;10.10;93.20;;;;;;5006891;28;20037;-80
2023/05/28 04:24:32;;;;;;;20.38;9.55;;;10.10;96.20;;;;;;5023986;28;20115;-81
2023/05/28 04:26:59;;;;;;;18.55;9.60;;;10.30;93.10;;;;;;4992471;28;20129;-81
2023/05/28 04:29:28;;;;;;;19.70;9.35;;;10.30;92.80;;;;;;4990991;28;20119;-81
2023/05/28 04:31:54;;;;;;;17.52;9.50;;;10.40;93.50;;;;;;5020656;28;20040;-81
2023/05/28 04:34:20;;;;;;;15.45;8.38;;;10.60;94.20;;;;;;5004817;28;20034;-82
2023/05/28 04:36:48;;;;;;;16.55;9.13;;;10.70;91.50;;;;;;4992586;28;20033;-81
2023/05/28 04:39:14;;;;;;;14.65;9.38;;;10.80;91.80;;;;;;5008041;28;20485;-81
2023/05/28 04:41:40;;;;;;;12.65;8.18;;;10.90;91.70;;;;;;5023577;28;20037;-81
2023/05/28 04:44:05;;;;;;;15.18;8.40;;;11.10;91.20;;;;;;5024722;28;20041;-81
2023/05/28 04:46:31;;;;;;;11.93;7.93;;;11.20;90.70;;;;;;5025299;28;20025;-80
2023/05/28 04:48:57;;;;;;;12.05;7.85;;;11.40;91.00;;;;;;5026018;28;20026;-81
2023/05/28 04:51:23;;;;;;;14.32;8.90;;;11.50;91.00;;;;;;5019376;28;20569;-81
2023/05/28 04:53:48;;;;;;;14.50;8.68;;;11.70;91.00;;;;;;5025662;28;20112;-81
2023/05/28 04:56:14;;;;;;;15.60;8.10;;;11.80;91.60;;;;;;5008259;28;20073;-80
2023/05/28 04:58:39;;;;;;;13.88;8.57;;;12.00;91.00;;;;;;5023092;28;20065;-81
2023/05/28 05:01:07;;;;;;;12.88;8.10;;;12.10;91.50;;;;;;5008161;28;20177;-80
2023/05/28 05:03:33;;;;;;;9.52;7.15;;;12.30;91.70;;;;;;5022779;28;20374;-80
2023/05/28 05:05:59;;;;;;;12.65;8.32;;;12.40;92.10;;;;;;5008597;28;20497;-81
2023/05/28 05:08:25;;;;;;;12.50;7.03;;;12.60;92.30;;;;;;5026194;28;20032;-81
2023/05/28 05:10:51;;;;;;;14.20;7.93;;;12.80;92.30;;;;;;5025450;28;20034;-81
2023/05/28 05:13:16;;;;;;;13.02;7.75;;;13.10;92.30;;;;;;5024284;28;20036;-81
2023/05/28 05:15:42;;;;;;;15.93;8.68;;;13.20;92.40;;;;;;5006975;28;20039;-80
2023/05/28 05:18:07;;;;;;;15.02;7.70;;;13.50;92.50;;;;;;5003937;28;20029;-80
2023/05/28 05:20:33;;;;;;;12.35;7.50;;;13.70;92.00;;;;;;5023684;28;20505;-81
2023/05/28 05:22:58;;;;;;;13.80;7.85;;;13.90;92.10;;;;;;5024574;28;20692;-81
2023/05/28 05:25:24;;;;;;;11.43;8.02;;;14.10;92.90;;;;;;5006834;28;20496;-80
2023/05/28 05:27:52;;;;;;;11.63;6.68;;;14.30;92.60;;;;;;5008151;28;20022;-81
2023/05/28 05:30:18;;;;;;;10.75;7.30;;;14.50;93.00;;;;;;5023434;28;20030;-80
2023/05/28 05:32:43;;;;;;;13.50;7.95;;;14.70;92.30;;;;;;5022261;28;20033;-80
2023/05/28 05:35:09;;;;;;;14.98;7.88;;;14.90;91.20;;;;;;5023902;28;20029;-81
2023/05/28 05:37:35;;;;;;;15.43;8.43;;;15.10;92.20;;;;;;5023127;28;20140;-80
2023/05/28 05:40:01;;;;;;;19.13;8.85;;;15.40;91.90;;;;;;5001923;28;20045;-81
2023/05/28 05:42:26;;;;;;;15.93;8.55;;;15.60;93.20;;;;;;5024392;28;20036;-80
2023/05/28 05:44:52;;;;;;;13.70;8.35;;;15.80;94.10;;;;;;5023177;28;20358;-80
2023/05/28 05:47:18;;;;;;;15.05;8.35;;;16.10;93.20;;;;;;5007035;28;20026;-80
2023/05/28 05:49:43;;;;;;;15.63;8.40;;;16.30;93.50;;;;;;5024096;28;20408;-80
2023/05/28 05:52:09;;;;;;;16.45;8.57;;;16.50;93.10;;;;;;5022656;28;20033;-80
2023/05/28 05:54:35;;;;;;;20.45;9.63;;;16.80;93.90;;;;;;5023645;28;20040;-80
2023/05/28 05:57:02;;;;;;;16.33;9.70;;;17.00;94.00;;;;;;5023253;28;20040;-79
2023/05/28 05:59:28;;;;;;;14.75;8.93;;;17.20;93.50;;;;;;5001300;28;20061;-80
2023/05/28 06:01:53;;;;;;;18.15;10.52;;;17.40;93.10;;;;;;5006887;28;20057;-80
2023/05/28 06:04:19;;;;;;;16.90;10.07;;;17.50;93.40;;;;;;5005777;28;20032;-80
2023/05/28 06:06:45;;;;;;;22.75;10.82;;;17.80;93.10;;;;;;5023223;28;20044;-80
2023/05/28 06:09:10;;;;;;;16.50;8.77;;;18.00;92.70;;;;;;5021461;28;20041;-80
2023/05/28 06:11:36;;;;;;;16.77;10.85;;;18.30;92.70;;;;;;5005351;28;20041;-80
2023/05/28 06:14:02;;;;;;;16.67;9.70;;;18.50;92.10;;;;;;5000325;28;20037;-80
2023/05/28 06:16:28;;;;;;;20.10;9.90;;;18.60;91.70;;;;;;5023071;28;20539;-80
2023/05/28 06:18:54;;;;;;;17.15;9.32;;;18.70;90.80;;;;;;5006591;28;20091;-79
2023/05/28 06:21:19;;;;;;;17.38;10.38;;;19.00;91.00;;;;;;5022914;28;20049;-79
2023/05/28 06:23:45;;;;;;;17.70;9.00;;;19.10;91.00;;;;;;4990542;28;20366;-79
2023/05/28 06:26:12;;;;;;;13.73;8.45;;;19.30;90.50;;;;;;5006483;28;20037;-79
2023/05/28 06:28:37;;;;;;;16.35;9.43;;;19.30;88.80;;;;;;5007406;28;20090;-79
2023/05/28 06:31:03;;;;;;;21.92;9.50;;;19.50;90.00;;;;;;5023316;28;20116;-79
2023/05/28 06:33:28;;;;;;;13.43;8.90;;;19.80;89.80;;;;;;5006396;28;20121;-79
2023/05/28 06:35:54;;;;;;;15.93;7.72;;;20.10;89.00;;;;;;5022748;28;20068;-79
2023/05/28 06:38:20;;;;;;;14.20;9.35;;;20.30;87.70;;;;;;5023905;28;20538;-79
2023/05/28 06:40:46;;;;;;;14.52;9.93;;;20.50;87.90;;;;;;5022149;28;20052;-79
2023/05/28 06:43:12;;;;;;;13.75;8.98;;;20.90;87.40;;;;;;4990376;28;20030;-79
2023/05/28 06:45:37;;;;;;;15.27;8.80;;;21.10;86.20;;;;;;5003991;28;20193;-79
2023/05/28 06:48:03;;;;;;;13.15;9.45;;;21.20;85.10;;;;;;5000811;28;20037;-80
2023/05/28 06:50:28;;;;;;;15.45;10.02;;;21.60;85.10;;;;;;5022571;28;20040;-80
2023/05/28 06:52:54;;;;;;;16.60;9.93;;;21.70;83.70;;;;;;5020339;28;20083;-78
2023/05/28 06:55:20;;;;;;;16.75;9.52;;;21.90;83.40;;;;;;5006076;28;20401;-78
2023/05/28 06:57:46;;;;;;;20.52;11.02;;;22.00;82.50;;;;;;4990074;28;20038;-78
2023/05/28 07:00:16;;;;;;;14.30;9.50;;;22.10;80.90;;;;;;5003717;28;20034;-79
2023/05/28 07:02:43;;;;;;;18.75;10.25;;;22.20;80.70;;;;;;5021552;28;20036;-79
2023/05/28 07:05:09;;;;;;;15.20;9.18;;;22.20;80.10;;;;;;5005052;28;20045;-79
2023/05/28 07:07:35;;;;;;;22.05;11.45;;;22.50;79.00;;;;;;5022455;28;20460;-79
2023/05/28 07:10:01;;;;;;;20.23;8.77;;;22.50;78.40;;;;;;4990009;28;20026;-79
2023/05/28 07:12:26;;;;;;;18.50;9.90;;;22.60;78.10;;;;;;5022053;28;20035;-78
2023/05/28 07:14:52;;;;;;;17.13;9.10;;;22.60;77.60;;;;;;5022811;28;20056;-79
2023/05/28 07:17:18;;;;;;;14.30;8.27;;;22.70;76.70;;;;;;4983589;28;20469;-79
2023/05/28 07:19:43;;;;;;;11.88;7.68;;;22.80;75.40;;;;;;5021073;28;20061;-79
2023/05/28 07:22:09;;;;;;;15.63;7.70;;;23.20;73.80;;;;;;5021810;28;20072;-79
2023/05/28 07:24:35;;;;;;;13.93;7.20;;;23.10;73.80;;;;;;5005914;28;20521;-81
2023/05/28 07:27:00;;;;;;;12.93;6.43;;;23.10;74.60;;;;;;5015174;28;20446;-81
2023/05/28 07:29:26;;;;;;;13.07;6.72;;;23.20;73.80;;;;;;5004569;28;20026;-81
2023/05/28 07:31:52;;;;;;;13.30;6.20;;;23.40;72.00;;;;;;5020758;28;20033;-81
2023/05/28 07:34:18;;;;;;;12.77;6.65;;;23.50;70.70;;;;;;5005066;28;20159;-80
2023/05/28 07:36:43;;;;;;;12.90;6.30;;;23.60;70.40;;;;;;5005576;28;20030;-81
2023/05/28 07:39:10;;;;;;;16.48;6.15;;;23.80;70.30;;;;;;4981872;28;20691;-82
2023/05/28 07:41:35;;;;;;;9.32;6.07;;;23.70;72.30;;;;;;5021092;28;20492;-79
2023/05/28 07:44:01;;;;;;;12.05;6.70;;;24.00;70.70;;;;;;5005844;28;20030;-79
2023/05/28 07:46:27;;;;;;;16.15;7.10;;;24.20;68.60;;;;;;5006000;28;20030;-80
2023/05/28 07:48:52;;;;;;;13.18;6.70;;;24.40;67.90;;;;;;5019552;28;20038;-79
2023/05/28 07:51:18;;;;;;;9.80;6.30;;;24.50;67.40;;;;;;5018187;28;20681;-80
2023/05/28 07:53:44;;;;;;;15.38;6.38;;;24.60;69.10;;;;;;5000648;28;20117;-80
2023/05/28 07:56:09;;;;;;;11.07;5.30;;;24.80;68.90;;;;;;5005195;28;20036;-80
2023/05/28 07:58:35;;;;;;;7.50;5.28;;;25.00;68.50;;;;;;5005236;28;20032;-80
2023/05/28 08:01:01;;;;;;;10.85;6.25;;;25.10;65.30;;;;;;5021235;28;20037;-80
2023/05/28 08:03:29;;;;;;;9.82;5.93;;;25.30;65.80;;;;;;5005001;28;20040;-79
2023/05/28 08:05:55;;;;;;;8.95;5.85;;;25.70;63.50;;;;;;4999344;28;20083;-79
2023/05/28 08:08:21;;;;;;;11.15;4.78;;;25.60;65.10;;;;;;5021593;28;20041;-78
2023/05/28 08:10:46;;;;;;;11.25;4.57;;;25.80;64.20;;;;;;5005310;28;20029;-79
2023/05/28 08:13:12;;;;;;;10.45;5.22;;;25.90;65.10;;;;;;5022129;28;20029;-79
2023/05/28 08:15:37;;;;;;;11.98;5.32;;;25.90;64.80;;;;;;4998083;28;20030;-79
2023/05/28 08:18:03;;;;;;;11.05;4.88;;;26.30;62.10;;;;;;5004899;28;20044;-79
2023/05/28 08:20:29;;;;;;;10.18;4.85;;;26.40;62.70;;;;;;5003722;28;20030;-79
2023/05/28 08:22:54;;;;;;;8.48;5.60;;;26.50;61.60;;;;;;4990039;28;20084;-79
2023/05/28 08:25:20;;;;;;;13.63;5.50;;;26.60;61.00;;;;;;5004902;28;20516;-78
2023/05/28 08:27:46;;;;;;;9.55;4.55;;;26.70;60.60;;;;;;5002826;28;20033;-80
2023/05/28 08:30:11;;;;;;;9.75;4.00;;;26.80;59.10;;;;;;5021974;28;20128;-80
2023/05/28 08:32:37;;;;;;;7.32;3.85;;;26.90;60.20;;;;;;5024475;28;20040;-80
2023/05/28 08:35:03;;;;;;;7.45;4.78;;;26.90;61.00;;;;;;5007550;28;20025;-80
2023/05/28 08:37:29;;;;;;;9.52;4.28;;;26.90;59.40;;;;;;5008786;28;20029;-80
2023/05/28 08:39:54;;;;;;;9.57;4.90;;;27.10;59.10;;;;;;5008753;28;20068;-80
2023/05/28 08:42:20;;;;;;;7.05;3.95;;;27.20;59.00;;;;;;5007955;28;20061;-80
2023/05/28 08:44:46;;;;;;;8.23;4.15;;;27.20;58.10;;;;;;5025371;28;20084;-80
2023/05/28 08:47:12;;;;;;;11.30;4.85;;;27.40;57.40;;;;;;5024488;28;20032;-81
2023/05/28 08:49:38;;;;;;;9.15;4.25;;;27.50;57.20;;;;;;5024886;28;20553;-81
2023/05/28 08:52:04;;;;;;;8.15;4.05;;;27.60;57.10;;;;;;5007631;28;20467;-80
2023/05/28 08:54:30;;;;;;;8.73;4.65;;;27.70;57.20;;;;;;5024548;28;20037;-81
2023/05/28 08:56:55;;;;;;;10.93;4.63;;;27.80;56.20;;;;;;5007372;28;20033;-80
2023/05/28 08:59:21;;;;;;;8.77;4.07;;;28.00;56.30;;;;;;5005779;28;20451;-81
2023/05/28 09:01:47;;;;;;;8.18;3.83;;;28.00;56.90;;;;;;5007914;28;20574;-81
2023/05/28 09:04:12;;;;;;;8.02;3.30;;;28.10;57.00;;;;;;5022886;28;20119;-80
2023/05/28 09:06:38;;;;;;;9.23;3.85;;;28.20;57.50;;;;;;5007751;28;20029;-80
2023/05/28 09:09:04;;;;;;;10.98;4.50;;;28.20;57.00;;;;;;5004314;28;20664;-80
2023/05/28 09:11:29;;;;;;;9.52;3.72;;;28.30;57.40;;;;;;5022560;28;20079;-80
2023/05/28 09:13:55;;;;;;;10.40;4.25;;;28.60;56.40;;;;;;5008614;28;20068;-80
2023/05/28 09:16:21;;;;;;;8.45;4.20;;;28.70;56.40;;;;;;5022647;28;20555;-81
2023/05/28 09:18:51;;;;;;;5.72;3.90;;;28.80;55.30;;;;;;5022603;28;20071;-81
2023/05/28 09:21:18;;;;;;;9.35;4.30;;;28.90;55.30;;;;;;5023984;28;20087;-81
2023/05/28 09:23:45;;;;;;;7.15;4.20;;;29.10;54.20;;;;;;5001475;28;20038;-81
2023/05/28 09:26:11;;;;;;;8.35;4.40;;;29.20;53.70;;;;;;5006872;28;20041;-82
2023/05/28 09:28:41;;;;;;;5.78;3.55;;;29.30;53.20;;;;;;5007277;28;20037;-82
2023/05/28 09:31:07;;;;;;;12.43;5.22;;;29.20;53.90;;;;;;5016054;28;20405;-82
2023/05/28 09:33:32;;;;;;;7.05;4.40;;;29.30;53.10;;;;;;5007718;28;20037;-82
2023/05/28 09:35:59;;;;;;;13.25;5.28;;;29.50;52.60;;;;;;5007212;28;20030;-82
2023/05/28 09:38:26;;;;;;;8.60;4.90;;;29.60;52.60;;;;;;5024610;28;20030;-83
2023/05/28 09:40:55;;;;;;;9.63;5.00;;;29.40;52.60;;;;;;5004988;28;20404;-83
2023/05/28 09:43:27;;;;;;;10.23;4.68;;;29.50;51.70;;;;;;5023133;28;20030;-82
2023/05/28 09:45:53;;;;;;;9.23;4.60;;;29.50;52.10;;;;;;5007189;28;20029;-83
2023/05/28 09:48:18;;;;;;;6.70;4.00;;;29.70;52.90;;;;;;5039420;28;20038;-83
2023/05/28 09:50:44;;;;;;;11.43;3.97;;;29.80;51.60;;;;;;5017832;28;20018;-83
2023/05/28 09:53:09;;;;;;;9.50;4.72;;;29.70;51.20;;;;;;5023007;28;20389;-83
2023/05/28 09:55:35;;;;;;;5.15;3.00;;;29.60;51.50;;;;;;5007342;28;20060;-83
2023/05/28 09:58:05;;;;;;;9.35;3.80;;;29.70;52.40;;;;;;5022286;28;20053;-82
2023/05/28 10:00:42;;;;;;;7.95;4.32;;;29.80;53.10;;;;;;5020516;28;20034;-82
2023/05/28 10:03:16;;;;;;;10.55;3.90;;;30.10;51.90;;;;;;5001247;28;20124;-83
2023/05/28 10:05:43;;;;;;;7.95;4.10;;;30.20;51.10;;;;;;5023346;28;20185;-83
2023/05/28 10:08:11;;;;;;;7.70;4.07;;;30.10;52.10;;;;;;5006201;28;20422;-83
2023/05/28 10:10:37;;;;;;;9.52;4.43;;;30.10;50.50;;;;;;5023525;28;20041;-82
2023/05/28 10:13:02;;;;;;;7.53;3.63;;;30.40;49.70;;;;;;5006472;28;20041;-82
2023/05/28 10:15:28;;;;;;;6.88;4.05;;;30.30;50.80;;;;;;4990058;28;20037;-81
2023/05/28 10:17:53;;;;;;;8.57;4.40;;;30.30;50.50;;;;;;5008033;28;20037;-82
2023/05/28 10:20:19;;;;;;;10.82;4.35;;;30.50;51.20;;;;;;5002666;28;20029;-82
2023/05/28 10:22:44;;;;;;;9.95;4.25;;;30.60;50.60;;;;;;5023501;28;20108;-82
2023/05/28 10:25:10;;;;;;;10.23;3.90;;;;;;;;;;5004093;28;20025;-81
2023/05/28 10:27:37;;;;;;;8.25;4.32;;;30.80;49.90;;;;;;5021896;28;20021;-81
2023/05/28 10:30:06;;;;;;;10.40;4.57;;;30.80;50.10;;;;;;5021731;28;20032;-81
2023/05/28 10:32:39;;;;;;;10.32;4.57;;;31.10;49.20;;;;;;5021135;28;20033;-81
2023/05/28 10:35:05;;;;;;;9.77;4.25;;;30.90;49.80;;;;;;5013179;28;20033;-82
2023/05/28 10:37:30;;;;;;;9.27;3.88;;;30.80;48.40;;;;;;5004141;28;20030;-81
2023/05/28 10:39:56;;;;;;;8.38;3.75;;;30.60;49.40;;;;;;5021138;28;20063;-81
2023/05/28 10:42:22;;;;;;;7.82;3.97;;;30.80;49.30;;;;;;4997594;28;20037;-82
2023/05/28 10:44:59;;;;;;;11.40;3.80;;;30.90;48.50;;;;;;5006423;28;20037;-82
2023/05/28 10:47:37;;;;;;;7.55;4.10;;;30.90;48.70;;;;;;5022468;28;20080;-82
2023/05/28 10:50:09;;;;;;;6.07;3.80;;;31.00;47.20;;;;;;4998845;28;20527;-81
2023/05/28 10:52:35;;;;;;;6.28;2.72;;;31.20;46.90;;;;;;5022478;28;20044;-81
2023/05/28 10:55:08;;;;;;;7.25;3.28;;;30.90;49.10;;;;;;5005659;28;20025;-81
2023/05/28 10:57:54;;;;;;;6.15;3.17;;;31.10;48.80;;;;;;5021332;28;20037;-81
2023/05/28 11:00:23;;;;;;;7.35;3.45;;;31.20;49.00;;;;;;5020182;28;20084;-81
2023/05/28 11:02:52;;;;;;;7.82;3.25;;;31.50;48.30;;;;;;4989975;28;20168;-81
2023/05/28 11:05:23;;;;;;;8.68;3.65;;;31.70;47.50;;;;;;5004983;28;20045;-81
2023/05/28 11:07:48;;;;;;;6.07;3.60;;;31.70;48.70;;;;;;5019979;28;20541;-81
2023/05/28 11:10:17;;;;;;;9.27;3.70;;;32.00;47.50;;;;;;5021596;28;20030;-81
2023/05/28 11:12:43;;;;;;;9.05;4.38;;;32.20;46.40;;;;;;5022386;28;20670;-82
2023/05/28 11:15:10;;;;;;;5.75;3.28;;;32.50;45.50;;;;;;5021847;28;20496;-81
2023/05/28 11:17:40;;;;;;;8.18;3.58;;;32.40;47.10;;;;;;5021765;28;20408;-81
2023/05/28 11:20:15;;;;;;;7.07;3.40;;;32.40;46.60;;;;;;5022154;28;20039;-81
2023/05/28 11:22:41;;;;;;;4.72;2.88;;;32.40;47.80;;;;;;5021597;28;20636;-81
2023/05/28 11:25:08;;;;;;;6.55;3.05;;;32.40;48.20;;;;;;5022602;28;20033;-81
2023/05/28 11:27:35;;;;;;;7.70;3.50;;;32.50;48.20;;;;;;5004064;28;20025;-81
2023/05/28 11:30:02;;;;;;;8.65;3.25;;;32.80;47.10;;;;;;4989527;28;20681;-81
2023/05/28 11:32:28;;;;;;;8.07;3.38;;;32.80;47.40;;;;;;5005538;28;20495;-80
2023/05/28 11:34:55;;;;;;;5.65;2.85;;;33.00;45.20;;;;;;5006454;28;20041;-82
2023/05/28 11:37:29;;;;;;;5.97;3.13;;;33.00;45.50;;;;;;4988048;28;20026;-82
2023/05/28 11:39:55;;;;;;;11.15;3.92;;;33.00;45.70;;;;;;5021048;28;20458;-82
2023/05/28 11:42:21;;;;;;;7.88;3.47;;;33.00;45.20;;;;;;5005088;28;20044;-82
2023/05/28 11:44:48;;;;;;;5.80;2.92;;;33.10;44.60;;;;;;4999804;28;20441;-82
2023/05/28 11:47:14;;;;;;;5.43;3.45;;;33.10;45.10;;;;;;5021120;28;20045;-81
2023/05/28 11:49:43;;;;;;;9.27;3.63;;;33.10;44.30;;;;;;5021708;28;20029;-82
2023/05/28 11:52:16;;;;;;;5.95;3.60;;;33.10;44.50;;;;;;5004607;28;20040;-81
2023/05/28 11:54:42;;;;;;;7.30;3.50;;;33.40;43.90;;;;;;5022951;28;20101;-81
2023/05/28 11:57:08;;;;;;;7.95;3.05;;;33.50;43.30;;;;;;5000452;28;20118;-82
2023/05/28 11:59:34;;;;;;;5.65;3.35;;;33.80;42.90;;;;;;5005821;28;20129;-81
2023/05/28 12:02:29;;;;;;;7.68;3.15;;;33.80;42.20;;;;;;5006245;28;20040;-81
2023/05/28 12:05:02;;;;;;;7.88;4.07;;;33.80;42.90;;;;;;5012098;28;20116;-81
2023/05/28 12:07:36;;;;;;;8.07;2.72;;;33.90;43.20;;;;;;4993870;28;20030;-81
2023/05/28 12:10:09;;;;;;;8.10;3.25;;;33.90;43.00;;;;;;5006164;28;20069;-80
2023/05/28 12:12:41;;;;;;;5.15;2.88;;;33.80;42.60;;;;;;5005979;28;20057;-81
2023/05/28 12:15:06;;;;;;;5.00;2.85;;;33.90;42.80;;;;;;4989534;28;20384;-81
2023/05/28 12:17:39;;;;;;;6.82;3.10;;;33.90;44.70;;;;;;5025475;28;20026;-81
2023/05/28 12:20:26;;;;;;;8.25;3.10;;;34.20;42.30;;;;;;5001044;28;20120;-81
2023/05/28 12:23:01;;;;;;;8.07;3.20;;;34.40;42.80;;;;;;5015441;28;20116;-81
2023/05/28 12:25:26;;;;;;;4.30;2.45;;;34.50;43.30;;;;;;5025001;28;20037;-81
2023/05/28 12:27:52;;;;;;;7.80;3.20;;;34.40;42.00;;;;;;5025049;28;20022;-81
2023/05/28 12:30:18;;;;;;;4.63;2.90;;;34.40;41.20;;;;;;5018791;28;20029;-81
2023/05/28 12:32:43;;;;;;;6.43;2.92;;;34.40;42.70;;;;;;5007657;28;20041;-82
2023/05/28 12:35:09;;;;;;;8.35;2.80;;;34.50;41.90;;;;;;5024619;28;20032;-81
2023/05/28 12:37:34;;;;;;;7.43;2.75;;;34.50;41.40;;;;;;5008684;28;20057;-83